Time;durP1;ratioP1;P1;durP2;ratioP2;P2;SDS_P1;SDS_P2;PMS_P1;PMS_P2;Temp;Humidity;BMP_temperature;BMP_pressure;BME280_temperature;BME280_humidity;BME280_pressure;Samples;Min_cycle;Max_cycle;Signal;HPM_P1;HPM_P2
2024/03/21 00:01:19;;;;;;;34.42;31.90;;;;;;;;;;4198117;28;20047;-59
2024/03/21 00:03:19;;;;;;;36.28;34.15;;;;;;;;;;4197764;28;20063;-62
2024/03/21 00:05:20;;;;;;;33.83;31.88;;;;;;;;;;4198285;28;20038;-62
2024/03/21 00:07:20;;;;;;;36.17;33.97;;;;;;;;;;4197918;28;20036;-62
2024/03/21 00:09:22;;;;;;;36.78;34.30;;;;;;;;;;4198269;28;20048;-62
2024/03/21 00:11:23;;;;;;;35.53;33.53;;;;;;;;;;4197897;28;20508;-62
2024/03/21 00:13:23;;;;;;;38.45;35.75;;;;;;;;;;4197845;28;20052;-62
2024/03/21 00:15:24;;;;;;;37.50;35.00;;;;;;;;;;4197865;28;20048;-63
2024/03/21 00:17:26;;;;;;;35.08;32.67;;;;;;;;;;4197836;28;20036;-62
2024/03/21 00:19:26;;;;;;;37.72;35.22;;;;;;;;;;4197730;28;20048;-62
2024/03/21 00:21:27;;;;;;;37.78;35.28;;;;;;;;;;4197654;28;20033;-63
2024/03/21 00:23:28;;;;;;;34.75;32.63;;;;;;;;;;4197757;28;20834;-62
2024/03/21 00:25:28;;;;;;;36.42;34.17;;;;;;;;;;4197882;28;20535;-62
2024/03/21 00:27:29;;;;;;;31.27;29.73;;;;;;;;;;4197706;28;20040;-63
2024/03/21 00:29:30;;;;;;;30.00;28.55;;;;;;;;;;4197467;28;20397;-62
2024/03/21 00:31:31;;;;;;;26.58;25.52;;;;;;;;;;4197557;28;20040;-63
2024/03/21 00:33:32;;;;;;;27.50;26.58;;;;;;;;;;4199662;28;20047;-63
2024/03/21 00:35:32;;;;;;;27.95;26.65;;;;;;;;;;4214265;28;20127;-62
2024/03/21 00:37:33;;;;;;;29.92;28.83;;;;;;;;;;4214295;28;20040;-62
2024/03/21 00:39:33;;;;;;;30.15;28.98;;;;;;;;;;4214112;28;20040;-62
2024/03/21 00:41:34;;;;;;;30.27;29.08;;;;;;;;;;4214306;28;20036;-62
2024/03/21 00:43:35;;;;;;;30.00;28.40;;;;;;;;;;4213937;28;20143;-62
2024/03/21 00:45:35;;;;;;;31.55;30.08;;;;;;;;;;4214035;28;20539;-62
2024/03/21 00:47:36;;;;;;;31.55;29.95;;;;;;;;;;4214110;28;20419;-62
2024/03/21 00:49:36;;;;;;;29.85;28.35;;;;;;;;;;4203225;28;20385;-63
2024/03/21 00:51:39;;;;;;;32.88;31.35;;;;;;;;;;4197166;28;20428;-62
2024/03/21 00:53:39;;;;;;;;;;;;;;;;;;4197709;28;20048;-63
2024/03/21 00:55:40;;;;;;;32.33;30.90;;;;;;;;;;4197295;28;19943;-62
2024/03/21 00:57:41;;;;;;;32.13;30.63;;;;;;;;;;4197077;28;20047;-62
2024/03/21 00:59:45;;;;;;;30.10;28.70;;;;;;;;;;4197054;28;20059;-63
2024/03/21 01:01:46;;;;;;;33.85;32.53;;;;;;;;;;4197042;28;20048;-63
2024/03/21 01:03:46;;;;;;;34.15;32.85;;;;;;;;;;4196838;28;20053;-63
2024/03/21 01:05:51;;;;;;;32.83;31.42;;;;;;;;;;4196993;28;20043;-63
2024/03/21 01:07:51;;;;;;;32.92;31.65;;;;;;;;;;4197243;28;20037;-63
2024/03/21 01:09:52;;;;;;;33.03;31.63;;;;;;;;;;4196968;28;20139;-63
2024/03/21 01:11:54;;;;;;;31.80;30.40;;;;;;;;;;4196938;28;20167;-63
2024/03/21 01:13:55;;;;;;;33.00;31.50;;;;;;;;;;4197129;28;20051;-59
2024/03/21 01:15:56;;;;;;;35.42;33.92;;;;;;;;;;4196801;28;20088;-59
2024/03/21 01:17:59;;;;;;;32.55;31.23;;;;;;;;;;4196877;28;20048;-59
2024/03/21 01:19:59;;;;;;;32.53;31.02;;;;;;;;;;4180341;28;20548;-60
2024/03/21 01:22:00;;;;;;;31.25;29.98;;;;;;;;;;4196598;28;20127;-59
2024/03/21 01:24:00;;;;;;;34.50;32.78;;;;;;;;;;4196780;28;20461;-60
2024/03/21 01:26:02;;;;;;;36.47;34.17;;;;;;;;;;4196710;28;20044;-59
2024/03/21 01:28:02;;;;;;;34.63;32.80;;;;;;;;;;4213453;28;20040;-58
2024/03/21 01:30:03;;;;;;;38.33;36.45;;;;;;;;;;4200832;28;20449;-59
2024/03/21 01:32:04;;;;;;;34.05;32.45;;;;;;;;;;4213302;28;20448;-59
2024/03/21 01:34:05;;;;;;;35.08;33.38;;;;;;;;;;4213252;28;20130;-59
2024/03/21 01:36:06;;;;;;;33.70;32.08;;;;;;;;;;4213278;28;20051;-59
2024/03/21 01:38:06;;;;;;;34.42;32.30;;;;;;;;;;4213352;28;20076;-59
2024/03/21 01:40:08;;;;;;;36.25;34.50;;;;;;;;;;4213197;28;20085;-60
2024/03/21 01:42:10;;;;;;;34.75;33.05;;;;;;;;;;4213335;28;20519;-59
2024/03/21 01:44:17;;;;;;;32.28;30.83;;;;;;;;;;4213305;28;20044;-60
2024/03/21 01:46:21;;;;;;;33.13;31.52;;;;;;;;;;4198763;28;20038;-59
2024/03/21 01:48:22;;;;;;;31.48;29.60;;;;;;;;;;4196330;28;20037;-59
2024/03/21 01:50:22;;;;;;;33.92;32.17;;;;;;;;;;4196239;28;20040;-60
2024/03/21 01:52:23;;;;;;;34.10;32.40;;;;;;;;;;4196307;28;20540;-59
2024/03/21 01:54:23;;;;;;;32.03;30.67;;;;;;;;;;4195835;28;20535;-59
2024/03/21 01:56:24;;;;;;;34.47;32.67;;;;;;;;;;4196281;28;20048;-59
2024/03/21 01:58:25;;;;;;;33.15;31.40;;;;;;;;;;4194807;28;20040;-59
2024/03/21 02:00:25;;;;;;;32.40;30.90;;;;;;;;;;4196432;28;20033;-59
2024/03/21 02:02:26;;;;;;;30.50;29.17;;;;;;;;;;4567825;22;20032;-57
2024/03/21 02:04:27;;;;;;;30.33;28.92;;;;;;;;;;4179688;28;20239;-57
2024/03/21 02:06:28;;;;;;;33.40;31.58;;;;;;;;;;4196063;28;20475;-58
2024/03/21 02:08:29;;;;;;;36.15;34.17;;;;;;;;;;4196356;28;20040;-57
2024/03/21 02:10:29;;;;;;;30.55;28.95;;;;;;;;;;4182555;28;20064;-58
2024/03/21 02:12:49;;;;;;;35.50;33.38;;;;;;;;;;4179810;28;20049;-57
2024/03/21 02:14:50;;;;;;;35.88;34.03;;;;;;;;;;4179473;28;20044;-58
2024/03/21 02:16:50;;;;;;;33.25;31.70;;;;;;;;;;4162990;28;20104;-58
2024/03/21 02:18:52;;;;;;;32.83;31.40;;;;;;;;;;4179362;28;20492;-57
2024/03/21 02:20:52;;;;;;;33.47;31.70;;;;;;;;;;4179257;28;20052;-57
2024/03/21 02:22:53;;;;;;;33.53;31.52;;;;;;;;;;4179268;28;20037;-57
2024/03/21 02:24:53;;;;;;;31.92;30.08;;;;;;;;;;4179350;28;20075;-56
2024/03/21 02:26:54;;;;;;;33.47;31.95;;;;;;;;;;4188686;28;20115;-57
2024/03/21 02:28:54;;;;;;;28.65;27.45;;;;;;;;;;4195856;28;20119;-57
2024/03/21 02:30:55;;;;;;;32.67;31.10;;;;;;;;;;4195237;28;20431;-57
2024/03/21 02:32:56;;;;;;;30.83;29.08;;;;;;;;;;4195306;28;20127;-57
2024/03/21 02:34:56;;;;;;;32.22;30.77;;;;;;;;;;4194397;28;20033;-57
2024/03/21 02:36:57;;;;;;;30.52;29.10;;;;;;;;;;4194327;28;20082;-57
2024/03/21 02:38:57;;;;;;;32.33;30.92;;;;;;;;;;4194143;28;20153;-57
2024/03/21 02:40:58;;;;;;;33.17;31.67;;;;;;;;;;4194059;28;20119;-56
2024/03/21 02:42:58;;;;;;;31.17;29.95;;;;;;;;;;4194090;28;20057;-57
2024/03/21 02:44:59;;;;;;;30.13;28.95;;;;;;;;;;4194151;28;20041;-58
2024/03/21 02:46:59;;;;;;;34.22;32.75;;;;;;;;;;4194132;28;20439;-57
2024/03/21 02:49:00;;;;;;;31.65;30.13;;;;;;;;;;4178597;28;20063;-57
2024/03/21 02:51:01;;;;;;;31.42;30.15;;;;;;;;;;4195627;28;20044;-58
2024/03/21 02:53:04;;;;;;;32.55;31.17;;;;;;;;;;4178399;28;21051;-57
2024/03/21 02:55:04;;;;;;;30.75;29.35;;;;;;;;;;4195455;28;20037;-57
2024/03/21 02:57:07;;;;;;;33.60;31.88;;;;;;;;;;4195755;28;20487;-57
2024/03/21 02:59:08;;;;;;;33.78;32.22;;;;;;;;;;4195520;28;20404;-57
2024/03/21 03:01:08;;;;;;;35.35;33.55;;;;;;;;;;4179353;28;20048;-57
2024/03/21 03:03:09;;;;;;;31.88;30.50;;;;;;;;;;4195350;28;20404;-56
2024/03/21 03:05:11;;;;;;;32.38;30.98;;;;;;;;;;4195727;28;20032;-57
2024/03/21 03:07:12;;;;;;;34.60;32.72;;;;;;;;;;4198002;28;20036;-57
2024/03/21 03:09:13;;;;;;;33.47;31.52;;;;;;;;;;4199014;28;20052;-58
2024/03/21 03:11:13;;;;;;;35.85;33.97;;;;;;;;;;4199024;28;20074;-57
2024/03/21 03:13:14;;;;;;;36.42;33.63;;;;;;;;;;4198753;28;20040;-57
2024/03/21 03:15:15;;;;;;;33.95;32.33;;;;;;;;;;4199224;28;20067;-57
2024/03/21 03:17:15;;;;;;;31.20;30.13;;;;;;;;;;4198748;28;20049;-57
2024/03/21 03:19:16;;;;;;;29.15;27.90;;;;;;;;;;4198693;28;20063;-58
2024/03/21 03:21:17;;;;;;;30.77;29.52;;;;;;;;;;4182429;28;20039;-58
2024/03/21 03:23:17;;;;;;;30.98;29.55;;;;;;;;;;4198641;28;20037;-57
2024/03/21 03:25:18;;;;;;;32.45;31.05;;;;;;;;;;4198700;28;20123;-57
2024/03/21 03:27:18;;;;;;;33.28;31.42;;;;;;;;;;4198597;28;20040;-57
2024/03/21 03:29:19;;;;;;;33.38;31.83;;;;;;;;;;4198607;28;20039;-57
2024/03/21 03:31:21;;;;;;;34.47;32.88;;;;;;;;;;4198448;28;20045;-57
2024/03/21 03:35:41;;;;;;;37.55;35.03;;;;;;;;;;4198528;28;20040;-57
2024/03/21 03:37:42;;;;;;;36.75;34.28;;;;;;;;;;4198343;28;20064;-56
2024/03/21 03:39:43;;;;;;;36.75;34.88;;;;;;;;;;4198362;28;20503;-58
2024/03/21 03:41:43;;;;;;;34.67;33.38;;;;;;;;;;4198303;28;20036;-58
2024/03/21 03:43:44;;;;;;;35.70;34.13;;;;;;;;;;4198536;28;20033;-57
2024/03/21 03:45:44;;;;;;;32.72;31.23;;;;;;;;;;4198289;28;20519;-57
2024/03/21 03:47:45;;;;;;;33.15;31.65;;;;;;;;;;4181625;28;20041;-57
2024/03/21 03:49:46;;;;;;;34.90;33.53;;;;;;;;;;4198148;28;20515;-57
2024/03/21 03:51:46;;;;;;;33.15;31.58;;;;;;;;;;4198215;28;20121;-57
2024/03/21 03:53:48;;;;;;;35.10;33.70;;;;;;;;;;4198161;28;20109;-57
2024/03/21 03:55:48;;;;;;;34.10;32.30;;;;;;;;;;4198168;28;20047;-57
2024/03/21 03:57:49;;;;;;;36.17;34.47;;;;;;;;;;4181479;28;20517;-57
2024/03/21 03:59:49;;;;;;;35.78;33.53;;;;;;;;;;4198111;28;20502;-57
2024/03/21 04:01:50;;;;;;;37.70;35.83;;;;;;;;;;4181397;28;20133;-56
2024/03/21 04:03:51;;;;;;;37.30;35.35;;;;;;;;;;4197911;28;20048;-57
2024/03/21 04:05:55;;;;;;;34.97;33.08;;;;;;;;;;4198371;28;20075;-58
2024/03/21 04:07:56;;;;;;;35.30;33.78;;;;;;;;;;4181495;28;20041;-57
2024/03/21 04:09:57;;;;;;;34.65;32.53;;;;;;;;;;4197853;28;20495;-57
2024/03/21 04:11:58;;;;;;;31.10;29.98;;;;;;;;;;4197907;28;20043;-57
2024/03/21 04:13:59;;;;;;;34.70;33.38;;;;;;;;;;4164773;28;20053;-58
2024/03/21 04:16:00;;;;;;;33.33;32.15;;;;;;;;;;4196798;28;20439;-57
2024/03/21 04:18:00;;;;;;;31.00;29.90;;;;;;;;;;4197315;28;20048;-57
2024/03/21 04:20:05;;;;;;;34.05;32.67;;;;;;;;;;4197607;28;20063;-57
2024/03/21 04:22:05;;;;;;;35.20;33.80;;;;;;;;;;4197809;28;20040;-57
2024/03/21 04:24:06;;;;;;;34.20;32.90;;;;;;;;;;4181141;28;20170;-57
2024/03/21 04:26:06;;;;;;;33.47;32.15;;;;;;;;;;4181368;28;20051;-55
2024/03/21 04:28:07;;;;;;;34.80;33.33;;;;;;;;;;4197649;28;20040;-55
2024/03/21 04:30:08;;;;;;;32.10;30.85;;;;;;;;;;4180780;28;20049;-55
2024/03/21 04:32:13;;;;;;;32.53;31.40;;;;;;;;;;4197552;28;20087;-56
2024/03/21 04:34:14;;;;;;;33.20;31.52;;;;;;;;;;4197447;28;20066;-55
2024/03/21 04:36:14;;;;;;;38.00;36.50;;;;;;;;;;4181067;28;20068;-56
2024/03/21 04:38:15;;;;;;;35.08;33.67;;;;;;;;;;4197883;28;20545;-55
2024/03/21 04:40:16;;;;;;;36.53;34.45;;;;;;;;;;4180963;28;20064;-55
2024/03/21 04:42:16;;;;;;;40.70;37.60;;;;;;;;;;4197436;28;20068;-56
2024/03/21 04:44:17;;;;;;;36.05;34.40;;;;;;;;;;4197455;28;20040;-55
2024/03/21 04:46:17;;;;;;;35.25;33.80;;;;;;;;;;4197111;28;20037;-56
2024/03/21 04:48:18;;;;;;;36.55;35.15;;;;;;;;;;4197273;28;20050;-55
2024/03/21 04:50:19;;;;;;;35.20;33.60;;;;;;;;;;4180903;28;20045;-56
2024/03/21 04:52:20;;;;;;;33.85;32.63;;;;;;;;;;4197029;28;20136;-55
2024/03/21 04:54:20;;;;;;;38.88;37.00;;;;;;;;;;4197314;28;20106;-56
2024/03/21 04:56:21;;;;;;;38.58;36.83;;;;;;;;;;4197183;28;20060;-56
2024/03/21 04:58:21;;;;;;;36.20;34.58;;;;;;;;;;4197195;28;20048;-56
2024/03/21 05:00:22;;;;;;;33.67;32.42;;;;;;;;;;4197390;28;20036;-56
2024/03/21 05:02:23;;;;;;;33.53;32.00;;;;;;;;;;4196719;28;20033;-56
2024/03/21 05:04:23;;;;;;;34.10;32.88;;;;;;;;;;4197102;28;20039;-56
2024/03/21 05:06:25;;;;;;;33.70;32.50;;;;;;;;;;4197272;28;20051;-56
2024/03/21 05:08:26;;;;;;;31.65;30.52;;;;;;;;;;4196563;28;20037;-55
2024/03/21 05:10:27;;;;;;;35.17;33.90;;;;;;;;;;4180508;28;20560;-56
2024/03/21 05:12:27;;;;;;;33.55;32.47;;;;;;;;;;4196540;28;20040;-56
2024/03/21 05:14:33;;;;;;;33.33;32.22;;;;;;;;;;4190830;28;20096;-55
2024/03/21 05:16:33;;;;;;;34.25;33.08;;;;;;;;;;4196862;28;20036;-55
2024/03/21 05:18:34;;;;;;;33.05;32.00;;;;;;;;;;4195848;28;20400;-55
2024/03/21 05:20:35;;;;;;;33.13;32.08;;;;;;;;;;4196544;28;20450;-56
2024/03/21 05:22:35;;;;;;;32.80;31.75;;;;;;;;;;4196873;28;20539;-55
2024/03/21 05:24:36;;;;;;;34.75;33.08;;;;;;;;;;4196899;28;20068;-56
2024/03/21 05:26:36;;;;;;;33.90;32.72;;;;;;;;;;4196686;28;20040;-56
2024/03/21 05:28:37;;;;;;;33.00;31.73;;;;;;;;;;4196181;28;20036;-56
2024/03/21 05:30:38;;;;;;;32.72;31.63;;;;;;;;;;4179505;28;20253;-56
2024/03/21 05:32:39;;;;;;;34.58;33.38;;;;;;;;;;4163671;28;20540;-56
2024/03/21 05:34:39;;;;;;;33.17;31.95;;;;;;;;;;4213526;28;20032;-54
2024/03/21 05:36:40;;;;;;;32.75;31.70;;;;;;;;;;4180318;28;20063;-55
2024/03/21 05:38:40;;;;;;;34.65;33.22;;;;;;;;;;4179948;28;20049;-55
2024/03/21 05:40:42;;;;;;;32.50;31.33;;;;;;;;;;4163370;28;20508;-56
2024/03/21 05:42:42;;;;;;;35.58;34.30;;;;;;;;;;4179973;28;20045;-56
2024/03/21 05:44:43;;;;;;;31.67;30.58;;;;;;;;;;4180153;28;20535;-55
2024/03/21 05:46:44;;;;;;;35.03;33.72;;;;;;;;;;4179872;28;20048;-55
2024/03/21 05:48:44;;;;;;;37.58;35.75;;;;;;;;;;4191834;28;20127;-56
2024/03/21 05:50:45;;;;;;;33.10;31.88;;;;;;;;;;4196219;28;20190;-56
2024/03/21 05:52:45;;;;;;;31.75;30.63;;;;;;;;;;4179810;28;20405;-55
2024/03/21 05:54:49;;;;;;;31.02;29.98;;;;;;;;;;4196209;28;20044;-55
2024/03/21 05:56:50;;;;;;;34.72;33.45;;;;;;;;;;4196612;28;20550;-55
2024/03/21 05:58:50;;;;;;;34.10;32.92;;;;;;;;;;4195347;28;20032;-56
2024/03/21 06:00:54;;;;;;;35.78;33.83;;;;;;;;;;4188079;28;20040;-55
2024/03/21 06:02:55;;;;;;;35.13;33.38;;;;;;;;;;4191927;28;20118;-55
2024/03/21 06:04:56;;;;;;;32.85;31.58;;;;;;;;;;4195128;28;20037;-55
2024/03/21 06:06:56;;;;;;;35.88;34.10;;;;;;;;;;4195712;28;20123;-55
2024/03/21 06:08:57;;;;;;;39.83;37.45;;;;;;;;;;4195623;28;20101;-56
2024/03/21 06:10:58;;;;;;;39.00;36.65;;;;;;;;;;4195882;28;20379;-55
2024/03/21 06:12:58;;;;;;;37.53;35.42;;;;;;;;;;4195914;28;20047;-55
2024/03/21 06:14:59;;;;;;;36.08;34.38;;;;;;;;;;4195777;28;20110;-55
2024/03/21 06:17:00;;;;;;;37.28;35.45;;;;;;;;;;4194886;28;20044;-56
2024/03/21 06:19:00;;;;;;;33.58;32.35;;;;;;;;;;4195787;28;20443;-56
2024/03/21 06:21:01;;;;;;;33.25;31.60;;;;;;;;;;4195686;28;20082;-77
2024/03/21 06:23:01;;;;;;;35.13;33.92;;;;;;;;;;4179316;28;20071;-79
2024/03/21 06:25:02;;;;;;;35.78;34.03;;;;;;;;;;4179447;28;20072;-78
2024/03/21 06:27:03;;;;;;;37.90;36.28;;;;;;;;;;4192360;28;20048;-80
2024/03/21 06:29:04;;;;;;;34.33;32.50;;;;;;;;;;4188294;28;20102;-80
2024/03/21 06:31:04;;;;;;;34.35;32.90;;;;;;;;;;4195408;28;20400;-81
2024/03/21 06:33:05;;;;;;;35.55;34.03;;;;;;;;;;4179185;28;20041;-83
2024/03/21 06:35:06;;;;;;;31.98;30.63;;;;;;;;;;4189428;28;20045;-82
2024/03/21 06:37:06;;;;;;;32.13;31.10;;;;;;;;;;4160687;28;20140;-81
2024/03/21 06:39:07;;;;;;;34.20;32.65;;;;;;;;;;4178480;28;20045;-82
2024/03/21 06:41:08;;;;;;;33.20;32.05;;;;;;;;;;4195507;28;20363;-82
2024/03/21 06:43:09;;;;;;;33.83;32.70;;;;;;;;;;4195743;28;20048;-81
2024/03/21 06:45:09;;;;;;;28.35;27.42;;;;;;;;;;4181648;28;20409;-78
2024/03/21 06:47:10;;;;;;;33.47;32.08;;;;;;;;;;4178745;28;20029;-70
2024/03/21 06:49:10;;;;;;;29.90;28.90;;;;;;;;;;4162633;28;20095;-70
2024/03/21 06:51:12;;;;;;;32.08;31.05;;;;;;;;;;4162393;28;20057;-70
2024/03/21 06:53:12;;;;;;;32.22;30.77;;;;;;;;;;4179080;28;20052;-70
2024/03/21 06:55:13;;;;;;;28.83;28.02;;;;;;;;;;4178898;28;20493;-70
2024/03/21 06:57:14;;;;;;;29.33;28.02;;;;;;;;;;4186922;28;20044;-69
2024/03/21 06:59:15;;;;;;;32.67;31.45;;;;;;;;;;4195635;28;20071;-70
2024/03/21 07:01:18;;;;;;;31.33;29.63;;;;;;;;;;4195603;28;20088;-69
2024/03/21 07:03:19;;;;;;;29.70;28.80;;;;;;;;;;4195365;28;20056;-70
2024/03/21 07:05:20;;;;;;;32.95;31.50;;;;;;;;;;4178915;28;20577;-70
2024/03/21 07:07:21;;;;;;;31.77;30.35;;;;;;;;;;4195623;28;20041;-70
2024/03/21 07:09:21;;;;;;;33.03;31.83;;;;;;;;;;4195475;28;20040;-70
2024/03/21 07:11:22;;;;;;;34.08;32.78;;;;;;;;;;4195465;28;20131;-70
2024/03/21 07:13:23;;;;;;;32.60;31.17;;;;;;;;;;4195517;28;20425;-70
2024/03/21 07:15:23;;;;;;;34.65;32.72;;;;;;;;;;4178823;28;20037;-70
2024/03/21 07:17:26;;;;;;;33.03;31.02;;;;;;;;;;4195383;28;20455;-69
2024/03/21 07:19:33;;;;;;;38.67;35.92;;;;;;;;;;4195475;28;20078;-70
2024/03/21 07:21:34;;;;;;;36.90;35.25;;;;;;;;;;4195427;28;20044;-70
2024/03/21 07:23:35;;;;;;;36.67;34.70;;;;;;;;;;4195369;28;20048;-69
2024/03/21 07:25:35;;;;;;;35.03;32.80;;;;;;;;;;4195441;28;20036;-70
2024/03/21 07:27:36;;;;;;;32.05;30.73;;;;;;;;;;4195414;28;20066;-70
2024/03/21 07:29:37;;;;;;;33.05;31.35;;;;;;;;;;4178685;28;20447;-70
2024/03/21 07:31:37;;;;;;;27.90;27.00;;;;;;;;;;4195372;28;20094;-70
2024/03/21 07:33:38;;;;;;;24.65;23.48;;;;;;;;;;4195616;28;20124;-70
2024/03/21 07:35:38;;;;;;;22.65;22.05;;;;;;;;;;4195411;28;20048;-70
2024/03/21 07:37:39;;;;;;;25.60;24.52;;;;;;;;;;4195684;28;20533;-70
2024/03/21 07:39:40;;;;;;;23.80;22.83;;;;;;;;;;4195275;28;20499;-70
2024/03/21 07:41:40;;;;;;;16.73;16.42;;;;;;;;;;4195257;28;20477;-70
2024/03/21 07:43:41;;;;;;;18.17;17.27;;;;;;;;;;4195435;28;20131;-70
2024/03/21 07:45:41;;;;;;;15.18;14.73;;;;;;;;;;4195421;28;20068;-69
2024/03/21 07:47:44;;;;;;;13.95;13.55;;;;;;;;;;4195353;28;20396;-70
2024/03/21 07:49:44;;;;;;;;;;;;;;;;;;4195683;28;20044;-70
2024/03/21 07:51:47;;;;;;;9.75;9.43;;;;;;;;;;4195449;28;19920;-70
2024/03/21 07:53:47;;;;;;;;;;;;;;;;;;4198644;28;20090;-70
2024/03/21 07:55:48;;;;;;;6.30;6.00;;;;;;;;;;4198279;28;20007;-70
2024/03/21 07:57:49;;;;;;;6.28;5.93;;;;;;;;;;4198480;28;20082;-79
2024/03/21 07:59:49;;;;;;;6.07;5.88;;;;;;;;;;4198125;28;20045;-79
2024/03/21 08:01:51;;;;;;;7.00;6.82;;;;;;;;;;4198124;28;20048;-78
2024/03/21 08:03:52;;;;;;;6.70;6.43;;;;;;;;;;4181276;28;20079;-78
2024/03/21 08:05:52;;;;;;;7.22;6.85;;;;;;;;;;4181536;28;20045;-78
2024/03/21 08:07:53;;;;;;;6.68;6.47;;;;;;;;;;4181426;28;20068;-77
2024/03/21 08:09:53;;;;;;;7.32;6.85;;;;;;;;;;4197911;28;20049;-77
2024/03/21 08:11:56;;;;;;;6.95;6.63;;;;;;;;;;4197928;28;20072;-78
2024/03/21 08:13:56;;;;;;;6.03;5.65;;;;;;;;;;4181325;28;20060;-78
2024/03/21 08:15:57;;;;;;;5.47;5.38;;;;;;;;;;4197743;28;20178;-78
2024/03/21 08:17:58;;;;;;;6.78;5.60;;;;;;;;;;4197818;28;20045;-77
2024/03/21 08:19:59;;;;;;;5.63;5.53;;;;;;;;;;4197718;28;20037;-77
2024/03/21 08:22:00;;;;;;;6.47;6.28;;;;;;;;;;4181206;28;20049;-78
2024/03/21 08:24:00;;;;;;;8.95;8.45;;;;;;;;;;4197875;28;20480;-77
2024/03/21 08:26:02;;;;;;;13.25;11.10;;;;;;;;;;4197618;28;20040;-77
2024/03/21 08:28:02;;;;;;;7.10;6.68;;;;;;;;;;4197668;28;20535;-78
2024/03/21 08:30:04;;;;;;;5.93;5.45;;;;;;;;;;4197475;28;20053;-77
2024/03/21 08:32:07;;;;;;;5.30;5.00;;;;;;;;;;4197497;28;20056;-76
2024/03/21 08:34:08;;;;;;;5.22;4.93;;;;;;;;;;4197660;28;20049;-78
2024/03/21 08:36:09;;;;;;;5.05;4.85;;;;;;;;;;4197498;28;20178;-75
2024/03/21 08:38:09;;;;;;;7.75;5.03;;;;;;;;;;4197523;28;20499;-77
2024/03/21 08:40:10;;;;;;;5.10;4.70;;;;;;;;;;4197568;28;20072;-76
2024/03/21 08:42:10;;;;;;;5.85;5.65;;;;;;;;;;4197514;28;20036;-76
2024/03/21 08:44:11;;;;;;;6.20;6.10;;;;;;;;;;4180903;28;20124;-76
2024/03/21 08:46:11;;;;;;;4.93;4.78;;;;;;;;;;4180860;28;20041;-74
2024/03/21 08:48:13;;;;;;;5.55;5.03;;;;;;;;;;4197250;28;20136;-76
2024/03/21 08:50:13;;;;;;;6.90;5.45;;;;;;;;;;4197183;28;20052;-77
2024/03/21 08:52:14;;;;;;;4.93;4.82;;;;;;;;;;4180597;28;20048;-77
2024/03/21 08:54:15;;;;;;;5.38;5.15;;;;;;;;;;4197243;28;20048;-77
2024/03/21 08:56:15;;;;;;;6.20;5.80;;;;;;;;;;4197445;28;20148;-76
2024/03/21 08:58:16;;;;;;;10.50;9.80;;;;;;;;;;4197438;28;20052;-74
2024/03/21 09:00:16;;;;;;;5.97;5.45;;;;;;;;;;4197016;28;20083;-76
2024/03/21 09:02:17;;;;;;;5.15;5.05;;;;;;;;;;4196973;28;20036;-77
2024/03/21 09:04:20;;;;;;;5.47;5.38;;;;;;;;;;4197022;28;20041;-76
2024/03/21 09:06:20;;;;;;;;;;;;;;;;;;4197502;28;20044;-78
2024/03/21 09:08:21;;;;;;;6.20;5.80;;;;;;;;;;4197522;28;19943;-69
2024/03/21 09:10:22;;;;;;;5.65;5.45;;;;;;;;;;4197154;28;20041;-69
2024/03/21 09:12:22;;;;;;;5.40;5.20;;;;;;;;;;4197258;28;20075;-69
2024/03/21 09:14:23;;;;;;;4.82;4.65;;;;;;;;;;4196989;28;20068;-69
2024/03/21 09:16:24;;;;;;;5.15;4.95;;;;;;;;;;4197143;28;20515;-69
2024/03/21 09:18:24;;;;;;;5.15;5.05;;;;;;;;;;4196958;28;20036;-69
2024/03/21 09:20:25;;;;;;;4.80;4.53;;;;;;;;;;4196720;28;20043;-68
2024/03/21 09:22:26;;;;;;;5.00;4.85;;;;;;;;;;4196740;28;20044;-68
2024/03/21 09:24:30;;;;;;;6.28;5.97;;;;;;;;;;4196764;28;20443;-68
2024/03/21 09:26:30;;;;;;;5.85;5.40;;;;;;;;;;4196709;28;20408;-68
2024/03/21 09:28:31;;;;;;;5.05;4.85;;;;;;;;;;4196689;28;20127;-67
2024/03/21 09:30:32;;;;;;;4.88;4.68;;;;;;;;;;4196689;28;20150;-68
2024/03/21 09:32:32;;;;;;;7.05;6.65;;;;;;;;;;4196811;28;20044;-68
2024/03/21 09:34:33;;;;;;;6.30;6.10;;;;;;;;;;4196618;28;20515;-68
2024/03/21 09:36:33;;;;;;;5.90;5.53;;;;;;;;;;4196557;28;20071;-68
2024/03/21 09:38:35;;;;;;;7.10;6.75;;;;;;;;;;4196482;28;20127;-69
2024/03/21 09:40:36;;;;;;;6.97;6.55;;;;;;;;;;4196409;28;20443;-68
2024/03/21 09:42:36;;;;;;;8.02;7.75;;;;;;;;;;4196580;28;20048;-67
2024/03/21 09:44:37;;;;;;;5.22;4.82;;;;;;;;;;4196456;28;20040;-67
2024/03/21 09:46:39;;;;;;;4.57;4.35;;;;;;;;;;4179807;28;20040;-68
2024/03/21 09:48:39;;;;;;;4.75;4.65;;;;;;;;;;4196644;28;20036;-68
2024/03/21 09:50:41;;;;;;;4.40;4.30;;;;;;;;;;4196314;28;20048;-69
2024/03/21 09:52:41;;;;;;;4.35;4.25;;;;;;;;;;4196339;28;20044;-68
2024/03/21 09:54:42;;;;;;;4.82;4.53;;;;;;;;;;4196404;28;20052;-67
2024/03/21 09:56:43;;;;;;;4.82;4.63;;;;;;;;;;4196322;28;20060;-68
2024/03/21 09:58:44;;;;;;;4.47;4.38;;;;;;;;;;4196208;28;20045;-68
2024/03/21 10:00:45;;;;;;;4.67;4.47;;;;;;;;;;4196226;28;20047;-67
2024/03/21 10:02:46;;;;;;;5.70;5.50;;;;;;;;;;4162648;28;20041;-68
2024/03/21 10:04:46;;;;;;;5.32;5.10;;;;;;;;;;4196125;28;20048;-68
2024/03/21 10:06:47;;;;;;;5.18;5.07;;;;;;;;;;4196103;28;20412;-67
2024/03/21 10:08:50;;;;;;;4.90;4.60;;;;;;;;;;4179391;28;20064;-68
2024/03/21 10:10:50;;;;;;;4.80;4.53;;;;;;;;;;4196044;28;20044;-67
2024/03/21 10:12:51;;;;;;;5.05;4.85;;;;;;;;;;4195642;28;20506;-68
2024/03/21 10:14:55;;;;;;;4.18;4.03;;;;;;;;;;4195453;28;20040;-68
2024/03/21 10:16:55;;;;;;;4.65;4.55;;;;;;;;;;4195355;28;20036;-68
2024/03/21 10:18:58;;;;;;;4.10;4.00;;;;;;;;;;4196101;28;20047;-76
2024/03/21 10:20:59;;;;;;;4.32;4.22;;;;;;;;;;4195767;28;20051;-74
2024/03/21 10:22:59;;;;;;;3.95;3.75;;;;;;;;;;4195887;28;20040;-78
2024/03/21 10:25:03;;;;;;;4.07;3.88;;;;;;;;;;4195854;28;20123;-77
2024/03/21 10:27:06;;;;;;;3.53;3.42;;;;;;;;;;4196104;28;20037;-76
2024/03/21 10:29:09;;;;;;;3.65;3.55;;;;;;;;;;4195799;28;20037;-76
2024/03/21 10:31:11;;;;;;;2.67;2.67;;;;;;;;;;4195667;28;20435;-74
2024/03/21 10:33:15;;;;;;;3.38;3.28;;;;;;;;;;4195815;28;20040;-77
2024/03/21 10:35:17;;;;;;;3.63;3.45;;;;;;;;;;4195902;28;20047;-76
2024/03/21 10:37:22;;;;;;;3.15;2.95;;;;;;;;;;4195890;28;20551;-76
2024/03/21 10:39:22;;;;;;;3.50;3.40;;;;;;;;;;4195868;28;20483;-74
2024/03/21 10:41:24;;;;;;;3.60;3.50;;;;;;;;;;4195769;28;20036;-77
2024/03/21 10:43:26;;;;;;;3.33;3.22;;;;;;;;;;4195858;28;20040;-78
2024/03/21 10:45:27;;;;;;;4.75;4.20;;;;;;;;;;4195780;28;20091;-77
2024/03/21 10:47:29;;;;;;;4.38;4.28;;;;;;;;;;4195796;28;20044;-75
2024/03/21 10:49:31;;;;;;;3.60;3.33;;;;;;;;;;4195775;28;20037;-76
2024/03/21 10:51:39;;;;;;;3.60;3.40;;;;;;;;;;4195735;28;20037;-75
2024/03/21 10:53:41;;;;;;;3.78;3.67;;;;;;;;;;4190942;28;20082;-76
2024/03/21 10:55:45;;;;;;;4.70;4.38;;;;;;;;;;4172471;28;20057;-77
2024/03/21 10:57:49;;;;;;;3.72;3.63;;;;;;;;;;4194177;28;20048;-76
2024/03/21 10:59:56;;;;;;;4.80;4.53;;;;;;;;;;4190315;28;20048;-76
2024/03/21 11:01:58;;;;;;;4.30;4.20;;;;;;;;;;4195187;28;20033;-78
2024/03/21 11:04:02;;;;;;;4.28;4.18;;;;;;;;;;4195440;28;20055;-76
2024/03/21 11:06:03;;;;;;;3.63;3.53;;;;;;;;;;4195644;28;20044;-75
2024/03/21 11:08:05;;;;;;;3.88;3.67;;;;;;;;;;4195615;28;20412;-76
2024/03/21 11:10:06;;;;;;;3.58;3.47;;;;;;;;;;4189194;28;20048;-75
2024/03/21 11:12:07;;;;;;;3.83;3.72;;;;;;;;;;4195361;28;20404;-77
2024/03/21 11:14:09;;;;;;;3.97;3.78;;;;;;;;;;4185404;28;20041;-74
2024/03/21 11:16:09;;;;;;;4.00;3.90;;;;;;;;;;4185758;28;20041;-76
2024/03/21 11:18:10;;;;;;;4.18;4.07;;;;;;;;;;4188157;28;20045;-74
2024/03/21 11:20:13;;;;;;;3.83;3.72;;;;;;;;;;4194029;28;20115;-75
2024/03/21 11:22:13;;;;;;;4.07;3.70;;;;;;;;;;4195458;28;20054;-77
2024/03/21 11:24:15;;;;;;;3.67;3.50;;;;;;;;;;4189540;28;20523;-78
2024/03/21 11:26:16;;;;;;;3.70;3.60;;;;;;;;;;4182952;28;20057;-77
2024/03/21 11:28:18;;;;;;;4.05;3.95;;;;;;;;;;4181462;28;20047;-67
2024/03/21 11:30:18;;;;;;;4.20;4.10;;;;;;;;;;4181747;28;20096;-68
2024/03/21 11:32:23;;;;;;;3.42;3.33;;;;;;;;;;4191953;28;20348;-67
2024/03/21 11:34:24;;;;;;;3.22;3.13;;;;;;;;;;4196814;28;20599;-68
2024/03/21 11:36:25;;;;;;;3.55;3.45;;;;;;;;;;4187621;28;20037;-67
2024/03/21 11:38:26;;;;;;;3.30;3.20;;;;;;;;;;4188440;28;20096;-67
2024/03/21 11:40:27;;;;;;;3.70;3.50;;;;;;;;;;4181911;28;20532;-68
2024/03/21 11:42:28;;;;;;;3.28;2.97;;;;;;;;;;4181904;28;20071;-67
2024/03/21 11:44:28;;;;;;;2.67;2.58;;;;;;;;;;4181868;28;20140;-67
2024/03/21 11:46:29;;;;;;;2.55;2.50;;;;;;;;;;4186240;28;20555;-67
2024/03/21 11:48:29;;;;;;;2.90;2.80;;;;;;;;;;4189898;28;20106;-66
2024/03/21 11:50:30;;;;;;;3.17;3.08;;;;;;;;;;4192969;28;20040;-66
2024/03/21 11:52:30;;;;;;;3.05;2.95;;;;;;;;;;4198379;28;20048;-66
2024/03/21 11:54:31;;;;;;;2.83;2.63;;;;;;;;;;4198343;28;20240;-66